sensor_id;sensor_type;location;lat;lon;timestamp;pressure;altitude;pressure_sealevel;temperature;humidity
48846;BME280;34665;51.886;5.436;2022-12-29T00:02:18;99888.13;;;14.42;100.00
48846;BME280;34665;51.886;5.436;2022-12-29T00:04:43;99864.16;;;14.57;100.00
48846;BME280;34665;51.886;5.436;2022-12-29T00:07:09;99858.59;;;14.30;100.00
48846;BME280;34665;51.886;5.436;2022-12-29T00:09:35;99860.41;;;14.41;100.00
48846;BME280;34665;51.886;5.436;2022-12-29T00:12:03;99862.78;;;14.72;100.00
48846;BME280;34665;51.886;5.436;2022-12-29T00:14:29;99864.97;;;14.58;100.00
48846;BME280;34665;51.886;5.436;2022-12-29T00:17:13;99855.84;;;14.59;100.00
48846;BME280;34665;51.886;5.436;2022-12-29T00:19:40;99859.09;;;14.61;100.00
48846;BME280;34665;51.886;5.436;2022-12-29T00:22:25;99854.28;;;14.63;100.00
48846;BME280;34665;51.886;5.436;2022-12-29T00:25:11;99833.75;;;14.74;100.00
48846;BME280;34665;51.886;5.436;2022-12-29T00:27:55;99845.00;;;14.54;100.00
48846;BME280;34665;51.886;5.436;2022-12-29T00:30:39;99843.03;;;14.49;100.00
48846;BME280;34665;51.886;5.436;2022-12-29T00:33:28;99842.41;;;14.42;100.00
48846;BME280;34665;51.886;5.436;2022-12-29T00:39:17;99836.44;;;14.40;100.00
48846;BME280;34665;51.886;5.436;2022-12-29T00:42:07;99817.41;;;14.63;100.00
48846;BME280;34665;51.886;5.436;2022-12-29T00:44:51;99808.25;;;14.42;100.00
48846;BME280;34665;51.886;5.436;2022-12-29T00:47:17;99823.63;;;14.64;100.00
48846;BME280;34665;51.886;5.436;2022-12-29T00:49:42;99797.63;;;14.53;100.00
48846;BME280;34665;51.886;5.436;2022-12-29T00:52:10;99789.53;;;14.70;100.00
48846;BME280;34665;51.886;5.436;2022-12-29T00:54:37;99794.09;;;14.69;100.00
48846;BME280;34665;51.886;5.436;2022-12-29T00:57:04;99782.06;;;14.55;100.00
48846;BME280;34665;51.886;5.436;2022-12-29T00:59:30;99801.72;;;14.38;100.00
48846;BME280;34665;51.886;5.436;2022-12-29T01:01:57;99782.16;;;14.43;100.00
48846;BME280;34665;51.886;5.436;2022-12-29T01:04:24;99775.69;;;14.61;100.00
48846;BME280;34665;51.886;5.436;2022-12-29T01:06:50;99794.44;;;14.56;100.00
48846;BME280;34665;51.886;5.436;2022-12-29T01:09:16;99788.22;;;14.72;100.00
48846;BME280;34665;51.886;5.436;2022-12-29T01:12:02;99772.00;;;14.67;100.00
48846;BME280;34665;51.886;5.436;2022-12-29T01:14:27;99780.31;;;14.26;100.00
48846;BME280;34665;51.886;5.436;2022-12-29T01:16:55;99782.09;;;14.20;100.00
48846;BME280;34665;51.886;5.436;2022-12-29T01:19:20;99773.47;;;14.18;100.00
48846;BME280;34665;51.886;5.436;2022-12-29T01:21:48;99788.28;;;14.04;100.00
48846;BME280;34665;51.886;5.436;2022-12-29T01:24:15;99807.03;;;14.33;100.00
48846;BME280;34665;51.886;5.436;2022-12-29T01:26:41;99804.75;;;14.08;100.00
48846;BME280;34665;51.886;5.436;2022-12-29T01:29:06;99783.56;;;14.11;100.00
48846;BME280;34665;51.886;5.436;2022-12-29T01:31:32;99771.69;;;14.07;100.00
48846;BME280;34665;51.886;5.436;2022-12-29T01:33:57;99775.81;;;13.98;100.00
48846;BME280;34665;51.886;5.436;2022-12-29T01:36:23;99780.41;;;14.14;100.00
48846;BME280;34665;51.886;5.436;2022-12-29T01:38:49;99759.09;;;14.30;100.00
48846;BME280;34665;51.886;5.436;2022-12-29T01:41:15;99771.75;;;14.12;100.00
48846;BME280;34665;51.886;5.436;2022-12-29T01:43:42;99758.47;;;14.23;100.00
48846;BME280;34665;51.886;5.436;2022-12-29T01:48:57;99748.19;;;14.19;100.00
48846;BME280;34665;51.886;5.436;2022-12-29T01:51:25;99766.59;;;14.45;100.00
48846;BME280;34665;51.886;5.436;2022-12-29T01:53:53;99763.41;;;14.70;100.00
48846;BME280;34665;51.886;5.436;2022-12-29T01:56:21;99763.41;;;14.70;100.00
48846;BME280;34665;51.886;5.436;2022-12-29T01:58:49;99781.78;;;14.73;100.00
48846;BME280;34665;51.886;5.436;2022-12-29T02:01:19;99786.34;;;14.16;100.00
48846;BME280;34665;51.886;5.436;2022-12-29T02:03:46;99803.03;;;14.18;100.00
48846;BME280;34665;51.886;5.436;2022-12-29T02:06:24;99784.38;;;14.12;100.00
48846;BME280;34665;51.886;5.436;2022-12-29T02:08:53;99792.84;;;13.86;100.00
48846;BME280;34665;51.886;5.436;2022-12-29T02:11:23;99764.25;;;13.80;100.00
48846;BME280;34665;51.886;5.436;2022-12-29T02:13:50;99788.28;;;13.87;100.00
48846;BME280;34665;51.886;5.436;2022-12-29T02:25:14;99797.88;;;26.43;100.00
48846;BME280;34665;51.886;5.436;2022-12-29T02:28:00;99786.50;;;25.00;100.00
48846;BME280;34665;51.886;5.436;2022-12-29T02:33:33;99763.78;;;26.14;85.13
48846;BME280;34665;51.886;5.436;2022-12-29T02:36:14;99742.13;;;25.47;96.47
48846;BME280;34665;51.886;5.436;2022-12-29T02:38:55;99755.78;;;24.45;100.00
48846;BME280;34665;51.886;5.436;2022-12-29T02:41:31;99740.69;;;24.57;98.63
48846;BME280;34665;51.886;5.436;2022-12-29T02:44:19;99739.94;;;24.25;98.18
48846;BME280;34665;51.886;5.436;2022-12-29T02:46:57;99751.47;;;25.29;92.99
48846;BME280;34665;51.886;5.436;2022-12-29T02:49:46;99735.88;;;23.45;100.00
48846;BME280;34665;51.886;5.436;2022-12-29T02:52:29;99737.56;;;22.67;100.00
48846;BME280;34665;51.886;5.436;2022-12-29T02:54:58;99728.19;;;23.70;100.00
48846;BME280;34665;51.886;5.436;2022-12-29T02:59:58;99734.09;;;22.89;100.00
48846;BME280;34665;51.886;5.436;2022-12-29T03:10:55;99712.94;;;21.50;100.00
48846;BME280;34665;51.886;5.436;2022-12-29T03:13:46;99733.28;;;20.95;100.00
48846;BME280;34665;51.886;5.436;2022-12-29T03:16:39;99721.97;;;21.07;100.00
48846;BME280;34665;51.886;5.436;2022-12-29T03:19:25;99724.34;;;21.85;100.00
48846;BME280;34665;51.886;5.436;2022-12-29T03:21:57;99722.28;;;20.62;100.00
48846;BME280;34665;51.886;5.436;2022-12-29T03:24:54;99730.53;;;21.00;100.00
48846;BME280;34665;51.886;5.436;2022-12-29T03:27:33;99729.13;;;21.22;100.00
48846;BME280;34665;51.886;5.436;2022-12-29T03:30:04;99713.91;;;20.83;100.00
48846;BME280;34665;51.886;5.436;2022-12-29T03:32:38;99712.00;;;21.02;100.00
48846;BME280;34665;51.886;5.436;2022-12-29T03:35:07;99699.41;;;21.26;100.00
48846;BME280;34665;51.886;5.436;2022-12-29T03:37:39;99705.00;;;20.96;100.00
48846;BME280;34665;51.886;5.436;2022-12-29T03:40:06;99692.78;;;21.51;100.00
48846;BME280;34665;51.886;5.436;2022-12-29T03:42:35;99702.72;;;22.08;100.00
48846;BME280;34665;51.886;5.436;2022-12-29T03:45:04;99705.63;;;21.65;100.00
48846;BME280;34665;51.886;5.436;2022-12-29T03:47:31;99700.88;;;20.55;100.00
48846;BME280;34665;51.886;5.436;2022-12-29T03:49:58;99701.75;;;20.51;100.00
48846;BME280;34665;51.886;5.436;2022-12-29T03:52:23;99692.34;;;20.43;100.00
48846;BME280;34665;51.886;5.436;2022-12-29T03:54:51;99685.84;;;21.06;100.00
48846;BME280;34665;51.886;5.436;2022-12-29T03:57:17;99696.22;;;20.61;100.00
48846;BME280;34665;51.886;5.436;2022-12-29T04:00:04;99688.06;;;20.61;100.00
48846;BME280;34665;51.886;5.436;2022-12-29T04:02:40;99698.22;;;20.26;100.00
48846;BME280;34665;51.886;5.436;2022-12-29T04:05:06;99693.13;;;20.68;100.00
48846;BME280;34665;51.886;5.436;2022-12-29T04:07:32;99694.34;;;21.19;100.00
48846;BME280;34665;51.886;5.436;2022-12-29T04:10:00;99700.44;;;20.48;100.00
48846;BME280;34665;51.886;5.436;2022-12-29T04:12:27;99709.03;;;21.18;100.00
48846;BME280;34665;51.886;5.436;2022-12-29T04:14:52;99709.88;;;20.99;100.00
48846;BME280;34665;51.886;5.436;2022-12-29T04:17:17;99696.13;;;21.10;100.00
48846;BME280;34665;51.886;5.436;2022-12-29T04:19:47;99712.59;;;21.18;100.00
48846;BME280;34665;51.886;5.436;2022-12-29T04:22:14;99726.19;;;20.51;100.00
48846;BME280;34665;51.886;5.436;2022-12-29T04:24:40;99714.69;;;20.59;100.00
48846;BME280;34665;51.886;5.436;2022-12-29T04:27:05;99727.50;;;21.02;100.00
48846;BME280;34665;51.886;5.436;2022-12-29T04:29:49;99727.34;;;20.93;100.00
48846;BME280;34665;51.886;5.436;2022-12-29T04:32:42;99709.03;;;20.80;100.00
48846;BME280;34665;51.886;5.436;2022-12-29T04:35:08;99718.91;;;21.14;100.00
48846;BME280;34665;51.886;5.436;2022-12-29T04:37:34;99739.53;;;20.96;100.00
48846;BME280;34665;51.886;5.436;2022-12-29T04:39:59;99706.81;;;19.44;100.00
48846;BME280;34665;51.886;5.436;2022-12-29T04:42:25;99717.13;;;18.16;100.00
48846;BME280;34665;51.886;5.436;2022-12-29T04:44:51;99721.09;;;20.68;100.00
48846;BME280;34665;51.886;5.436;2022-12-29T04:47:33;99736.06;;;22.00;100.00
48846;BME280;34665;51.886;5.436;2022-12-29T04:50:06;99724.59;;;19.21;100.00
48846;BME280;34665;51.886;5.436;2022-12-29T04:52:32;99741.22;;;19.84;100.00
48846;BME280;34665;51.886;5.436;2022-12-29T04:54:58;99742.97;;;18.69;100.00
48846;BME280;34665;51.886;5.436;2022-12-29T04:57:24;99737.38;;;20.19;100.00
48846;BME280;34665;51.886;5.436;2022-12-29T04:59:54;99725.59;;;20.78;100.00
48846;BME280;34665;51.886;5.436;2022-12-29T05:02:20;99746.41;;;20.63;100.00
48846;BME280;34665;51.886;5.436;2022-12-29T05:04:48;99742.66;;;20.35;100.00
48846;BME280;34665;51.886;5.436;2022-12-29T05:07:14;99747.41;;;19.10;100.00
48846;BME280;34665;51.886;5.436;2022-12-29T05:09:42;99737.81;;;19.68;100.00
48846;BME280;34665;51.886;5.436;2022-12-29T05:12:07;99757.69;;;19.58;100.00
48846;BME280;34665;51.886;5.436;2022-12-29T05:14:37;99743.78;;;19.30;100.00
48846;BME280;34665;51.886;5.436;2022-12-29T05:17:03;99754.44;;;18.29;100.00
48846;BME280;34665;51.886;5.436;2022-12-29T05:19:29;99744.84;;;18.68;100.00
48846;BME280;34665;51.886;5.436;2022-12-29T05:21:55;99745.41;;;18.70;100.00
48846;BME280;34665;51.886;5.436;2022-12-29T05:24:20;99767.66;;;18.52;100.00
48846;BME280;34665;51.886;5.436;2022-12-29T05:26:47;99767.09;;;20.35;100.00
48846;BME280;34665;51.886;5.436;2022-12-29T05:29:31;99767.91;;;21.47;97.30
48846;BME280;34665;51.886;5.436;2022-12-29T05:31:57;99763.09;;;20.52;100.00
48846;BME280;34665;51.886;5.436;2022-12-29T05:34:23;99759.44;;;21.48;97.16
48846;BME280;34665;51.886;5.436;2022-12-29T05:36:50;99768.06;;;21.37;97.39
48846;BME280;34665;51.886;5.436;2022-12-29T05:39:17;99776.25;;;20.93;97.58
48846;BME280;34665;51.886;5.436;2022-12-29T05:41:48;99786.19;;;19.90;100.00
48846;BME280;34665;51.886;5.436;2022-12-29T05:44:14;99789.47;;;20.51;99.21
48846;BME280;34665;51.886;5.436;2022-12-29T05:46:48;99772.19;;;20.42;100.00
48846;BME280;34665;51.886;5.436;2022-12-29T05:49:19;99775.88;;;20.75;100.00
48846;BME280;34665;51.886;5.436;2022-12-29T05:52:04;99783.19;;;19.97;100.00
48846;BME280;34665;51.886;5.436;2022-12-29T05:54:31;99777.38;;;20.62;100.00
48846;BME280;34665;51.886;5.436;2022-12-29T05:56:57;99789.91;;;20.34;100.00
48846;BME280;34665;51.886;5.436;2022-12-29T05:59:23;99791.97;;;19.78;100.00
48846;BME280;34665;51.886;5.436;2022-12-29T06:01:49;99776.09;;;20.01;100.00
48846;BME280;34665;51.886;5.436;2022-12-29T06:04:15;99787.94;;;19.30;100.00
48846;BME280;34665;51.886;5.436;2022-12-29T06:06:41;99784.31;;;19.90;100.00
48846;BME280;34665;51.886;5.436;2022-12-29T06:09:12;99791.25;;;19.67;100.00
48846;BME280;34665;51.886;5.436;2022-12-29T06:11:37;99787.47;;;20.03;100.00
48846;BME280;34665;51.886;5.436;2022-12-29T06:14:03;99784.81;;;19.98;100.00
48846;BME280;34665;51.886;5.436;2022-12-29T06:16:28;99777.84;;;20.16;99.85
48846;BME280;34665;51.886;5.436;2022-12-29T06:18:57;99779.69;;;19.96;99.87
48846;BME280;34665;51.886;5.436;2022-12-29T06:21:22;99787.06;;;19.85;100.00
48846;BME280;34665;51.886;5.436;2022-12-29T06:23:48;99787.81;;;19.96;98.60
48846;BME280;34665;51.886;5.436;2022-12-29T06:26:14;99783.41;;;20.35;98.41
48846;BME280;34665;51.886;5.436;2022-12-29T06:28:40;99774.53;;;19.95;98.49
48846;BME280;34665;51.886;5.436;2022-12-29T06:31:09;99803.59;;;19.84;97.35
48846;BME280;34665;51.886;5.436;2022-12-29T06:33:34;99795.25;;;19.75;97.95
48846;BME280;34665;51.886;5.436;2022-12-29T06:36:00;99787.06;;;19.85;98.06
48846;BME280;34665;51.886;5.436;2022-12-29T06:38:25;99798.47;;;20.17;94.95
48846;BME280;34665;51.886;5.436;2022-12-29T06:40:50;99795.88;;;20.36;93.28
48846;BME280;34665;51.886;5.436;2022-12-29T06:43:38;99799.09;;;20.38;93.00
48846;BME280;34665;51.886;5.436;2022-12-29T06:46:14;99798.22;;;20.97;91.77
48846;BME280;34665;51.886;5.436;2022-12-29T06:48:39;99809.16;;;21.35;87.87
48846;BME280;34665;51.886;5.436;2022-12-29T06:51:07;99796.56;;;20.71;90.22
48846;BME280;34665;51.886;5.436;2022-12-29T06:53:33;99805.81;;;20.70;91.20
48846;BME280;34665;51.886;5.436;2022-12-29T06:55:58;99795.25;;;19.75;95.72
48846;BME280;34665;51.886;5.436;2022-12-29T06:58:24;99809.69;;;20.64;92.25
48846;BME280;34665;51.886;5.436;2022-12-29T07:00:49;99812.91;;;20.96;88.72
48846;BME280;34665;51.886;5.436;2022-12-29T07:03:15;99821.38;;;20.65;88.66
48846;BME280;34665;51.886;5.436;2022-12-29T07:05:40;99802.97;;;20.86;88.38
48846;BME280;34665;51.886;5.436;2022-12-29T07:08:05;99807.69;;;20.75;89.04
48846;BME280;34665;51.886;5.436;2022-12-29T07:10:31;99801.97;;;20.76;90.42
48846;BME280;34665;51.886;5.436;2022-12-29T07:12:57;99816.94;;;20.15;90.38
48846;BME280;34665;51.886;5.436;2022-12-29T07:15:22;99814.41;;;20.83;89.14
48846;BME280;34665;51.886;5.436;2022-12-29T07:17:48;99810.44;;;20.45;89.17
48846;BME280;34665;51.886;5.436;2022-12-29T07:20:14;99821.69;;;19.99;91.09
48846;BME280;34665;51.886;5.436;2022-12-29T07:22:40;99814.75;;;20.17;91.53
48846;BME280;34665;51.886;5.436;2022-12-29T07:25:05;99829.03;;;20.87;90.13
48846;BME280;34665;51.886;5.436;2022-12-29T07:27:31;99822.06;;;19.42;94.01
48846;BME280;34665;51.886;5.436;2022-12-29T07:29:57;99834.84;;;19.31;97.46
48846;BME280;34665;51.886;5.436;2022-12-29T07:32:22;99845.59;;;19.52;95.55
48846;BME280;34665;51.886;5.436;2022-12-29T07:34:48;99840.53;;;19.29;96.12
48846;BME280;34665;51.886;5.436;2022-12-29T07:37:17;99843.16;;;19.50;96.11
48846;BME280;34665;51.886;5.436;2022-12-29T07:39:42;99842.72;;;19.77;94.02
48846;BME280;34665;51.886;5.436;2022-12-29T07:42:08;99853.41;;;19.58;93.45
48846;BME280;34665;51.886;5.436;2022-12-29T07:44:40;99848.06;;;19.93;92.28
48846;BME280;34665;51.886;5.436;2022-12-29T07:47:15;99853.50;;;19.88;94.26
48846;BME280;34665;51.886;5.436;2022-12-29T07:49:40;99845.66;;;19.36;93.06
48846;BME280;34665;51.886;5.436;2022-12-29T07:52:05;99851.22;;;19.66;93.23
48846;BME280;34665;51.886;5.436;2022-12-29T07:54:31;99847.31;;;19.77;90.37
48846;BME280;34665;51.886;5.436;2022-12-29T07:56:57;99857.72;;;19.59;92.26
48846;BME280;34665;51.886;5.436;2022-12-29T07:59:25;99867.44;;;19.15;91.70
48846;BME280;34665;51.886;5.436;2022-12-29T08:01:51;99879.31;;;19.30;90.89
48846;BME280;34665;51.886;5.436;2022-12-29T08:04:17;99882.28;;;19.28;89.84
48846;BME280;34665;51.886;5.436;2022-12-29T08:06:42;99876.06;;;19.28;90.30
48846;BME280;34665;51.886;5.436;2022-12-29T08:09:08;99888.75;;;19.98;85.91
48846;BME280;34665;51.886;5.436;2022-12-29T08:11:34;99875.34;;;19.62;86.99
48846;BME280;34665;51.886;5.436;2022-12-29T08:14:00;99876.22;;;19.52;86.19
48846;BME280;34665;51.886;5.436;2022-12-29T08:16:25;99871.50;;;19.18;87.13
48846;BME280;34665;51.886;5.436;2022-12-29T08:18:51;99862.19;;;19.85;85.25
48846;BME280;34665;51.886;5.436;2022-12-29T08:21:16;99867.53;;;19.55;85.78
48846;BME280;34665;51.886;5.436;2022-12-29T08:23:42;99873.41;;;19.12;88.03
48846;BME280;34665;51.886;5.436;2022-12-29T08:26:07;99847.66;;;19.20;88.22
48846;BME280;34665;51.886;5.436;2022-12-29T08:28:33;99876.69;;;18.94;89.63
48846;BME280;34665;51.886;5.436;2022-12-29T08:31:00;99863.13;;;18.94;89.43
48846;BME280;34665;51.886;5.436;2022-12-29T08:33:27;99877.56;;;19.55;87.28
48846;BME280;34665;51.886;5.436;2022-12-29T08:35:52;99883.84;;;19.45;87.98
48846;BME280;34665;51.886;5.436;2022-12-29T08:38:18;99886.63;;;19.29;89.48
48846;BME280;34665;51.886;5.436;2022-12-29T08:40:43;99867.31;;;19.41;90.44
48846;BME280;34665;51.886;5.436;2022-12-29T08:43:09;99871.19;;;19.25;90.80
48846;BME280;34665;51.886;5.436;2022-12-29T08:45:34;99864.78;;;18.79;92.41
48846;BME280;34665;51.886;5.436;2022-12-29T08:48:00;99879.44;;;18.68;94.43
48846;BME280;34665;51.886;5.436;2022-12-29T08:50:25;99852.91;;;18.70;93.24
48846;BME280;34665;51.886;5.436;2022-12-29T08:52:51;99861.78;;;18.96;95.70
48846;BME280;34665;51.886;5.436;2022-12-29T08:55:16;99870.97;;;19.16;98.62
48846;BME280;34665;51.886;5.436;2022-12-29T08:57:42;99859.69;;;18.57;100.00
48846;BME280;34665;51.886;5.436;2022-12-29T09:00:16;99857.53;;;18.59;100.00
48846;BME280;34665;51.886;5.436;2022-12-29T09:02:42;99859.66;;;18.83;100.00
48846;BME280;34665;51.886;5.436;2022-12-29T09:05:08;99870.53;;;18.36;100.00
48846;BME280;34665;51.886;5.436;2022-12-29T09:07:34;99875.44;;;18.24;100.00
48846;BME280;34665;51.886;5.436;2022-12-29T09:09:59;99877.56;;;18.11;100.00
48846;BME280;34665;51.886;5.436;2022-12-29T09:12:25;99885.59;;;19.10;97.40
48846;BME280;34665;51.886;5.436;2022-12-29T09:14:50;99877.50;;;19.04;95.76
48846;BME280;34665;51.886;5.436;2022-12-29T09:17:16;99885.03;;;19.13;94.91
48846;BME280;34665;51.886;5.436;2022-12-29T09:20:00;99894.03;;;19.08;94.92
48846;BME280;34665;51.886;5.436;2022-12-29T09:22:25;99892.72;;;18.59;96.94
48846;BME280;34665;51.886;5.436;2022-12-29T09:24:51;99893.75;;;18.94;99.90
48846;BME280;34665;51.886;5.436;2022-12-29T09:27:16;99891.06;;;18.78;100.00
48846;BME280;34665;51.886;5.436;2022-12-29T09:29:42;99908.38;;;19.03;100.00
48846;BME280;34665;51.886;5.436;2022-12-29T09:32:07;99905.19;;;17.29;100.00
48846;BME280;34665;51.886;5.436;2022-12-29T09:34:33;99910.63;;;16.91;100.00
48846;BME280;34665;51.886;5.436;2022-12-29T09:36:59;99931.16;;;16.54;100.00
48846;BME280;34665;51.886;5.436;2022-12-29T09:39:25;99924.50;;;17.05;100.00
48846;BME280;34665;51.886;5.436;2022-12-29T09:44:48;99951.28;;;16.41;100.00
48846;BME280;34665;51.886;5.436;2022-12-29T09:47:17;99952.72;;;16.22;100.00
48846;BME280;34665;51.886;5.436;2022-12-29T09:49:54;99957.69;;;16.35;100.00
48846;BME280;34665;51.886;5.436;2022-12-29T09:52:23;99981.81;;;16.80;100.00
48846;BME280;34665;51.886;5.436;2022-12-29T09:55:10;99967.72;;;16.12;100.00
48846;BME280;34665;51.886;5.436;2022-12-29T10:00:18;99976.91;;;16.71;100.00
48846;BME280;34665;51.886;5.436;2022-12-29T10:02:52;99978.13;;;17.29;100.00
48846;BME280;34665;51.886;5.436;2022-12-29T10:05:34;99983.00;;;16.94;100.00
48846;BME280;34665;51.886;5.436;2022-12-29T10:08:20;99971.56;;;16.82;100.00
48846;BME280;34665;51.886;5.436;2022-12-29T10:10:54;99991.97;;;16.67;100.00
48846;BME280;34665;51.886;5.436;2022-12-29T10:13:34;99997.31;;;16.95;100.00
48846;BME280;34665;51.886;5.436;2022-12-29T10:16:16;99992.13;;;16.50;100.00
48846;BME280;34665;51.886;5.436;2022-12-29T10:21:26;100002.44;;;17.82;100.00
48846;BME280;34665;51.886;5.436;2022-12-29T10:23:53;100004.09;;;17.88;100.00
48846;BME280;34665;51.886;5.436;2022-12-29T10:26:33;100012.41;;;18.45;100.00
48846;BME280;34665;51.886;5.436;2022-12-29T10:29:06;100021.34;;;18.72;100.00
48846;BME280;34665;51.886;5.436;2022-12-29T10:31:48;100029.47;;;19.18;100.00
48846;BME280;34665;51.886;5.436;2022-12-29T10:34:21;100035.19;;;20.14;100.00
48846;BME280;34665;51.886;5.436;2022-12-29T10:36:52;100048.38;;;18.41;100.00
48846;BME280;34665;51.886;5.436;2022-12-29T10:39:35;100043.09;;;20.10;100.00
48846;BME280;34665;51.886;5.436;2022-12-29T10:42:14;100062.94;;;20.51;100.00
48846;BME280;34665;51.886;5.436;2022-12-29T10:44:43;100056.09;;;20.58;100.00
48846;BME280;34665;51.886;5.436;2022-12-29T10:47:13;100048.25;;;20.57;100.00
48846;BME280;34665;51.886;5.436;2022-12-29T10:49:42;100054.91;;;19.48;100.00
48846;BME280;34665;51.886;5.436;2022-12-29T10:52:11;100054.63;;;18.57;100.00
48846;BME280;34665;51.886;5.436;2022-12-29T10:54:51;100057.13;;;19.15;100.00
48846;BME280;34665;51.886;5.436;2022-12-29T10:57:28;100061.47;;;19.32;100.00
48846;BME280;34665;51.886;5.436;2022-12-29T10:59:57;100083.03;;;19.84;100.00
48846;BME280;34665;51.886;5.436;2022-12-29T11:02:37;100080.66;;;18.73;100.00
48846;BME280;34665;51.886;5.436;2022-12-29T11:05:24;100082.72;;;18.25;100.00
48846;BME280;34665;51.886;5.436;2022-12-29T11:07:58;100089.78;;;18.31;100.00
48846;BME280;34665;51.886;5.436;2022-12-29T11:10:34;100078.22;;;18.98;100.00
48846;BME280;34665;51.886;5.436;2022-12-29T11:13:09;100079.72;;;20.08;100.00
48846;BME280;34665;51.886;5.436;2022-12-29T11:15:42;100089.22;;;20.05;100.00
48846;BME280;34665;51.886;5.436;2022-12-29T11:20:44;100106.13;;;19.76;100.00
48846;BME280;34665;51.886;5.436;2022-12-29T11:23:24;100108.22;;;20.05;100.00
48846;BME280;34665;51.886;5.436;2022-12-29T11:26:22;100123.75;;;19.78;100.00
48846;BME280;34665;51.886;5.436;2022-12-29T11:31:49;100116.31;;;21.16;100.00
48846;BME280;34665;51.886;5.436;2022-12-29T11:34:34;100119.47;;;19.36;100.00
48846;BME280;34665;51.886;5.436;2022-12-29T11:37:04;100116.69;;;19.98;100.00
48846;BME280;34665;51.886;5.436;2022-12-29T11:39:47;100114.75;;;20.09;100.00
48846;BME280;34665;51.886;5.436;2022-12-29T11:42:18;100123.53;;;19.18;100.00
48846;BME280;34665;51.886;5.436;2022-12-29T11:44:49;100134.34;;;19.70;100.00
48846;BME280;34665;51.886;5.436;2022-12-29T11:47:31;100123.72;;;19.89;100.00
48846;BME280;34665;51.886;5.436;2022-12-29T11:50:04;100128.41;;;19.31;100.00
48846;BME280;34665;51.886;5.436;2022-12-29T11:52:35;100141.81;;;22.57;100.00
48846;BME280;34665;51.886;5.436;2022-12-29T11:55:05;100143.47;;;20.81;100.00
48846;BME280;34665;51.886;5.436;2022-12-29T11:57:33;100154.31;;;23.16;96.17
48846;BME280;34665;51.886;5.436;2022-12-29T12:00:03;100153.59;;;19.99;100.00
48846;BME280;34665;51.886;5.436;2022-12-29T12:02:40;100164.50;;;21.05;100.00
48846;BME280;34665;51.886;5.436;2022-12-29T12:07:45;100142.19;;;22.89;100.00
48846;BME280;34665;51.886;5.436;2022-12-29T12:10:18;100149.00;;;19.12;100.00
48846;BME280;34665;51.886;5.436;2022-12-29T12:12:53;100161.38;;;18.82;100.00
48846;BME280;34665;51.886;5.436;2022-12-29T12:15:40;100143.34;;;21.37;100.00
48846;BME280;34665;51.886;5.436;2022-12-29T12:18:12;100144.44;;;21.35;99.34
48846;BME280;34665;51.886;5.436;2022-12-29T12:20:45;100164.16;;;21.81;96.57
48846;BME280;34665;51.886;5.436;2022-12-29T12:26:11;100156.97;;;22.83;90.27
48846;BME280;34665;51.886;5.436;2022-12-29T12:29:32;100151.25;;;23.17;86.66
48846;BME280;34665;51.886;5.436;2022-12-29T12:32:01;100174.56;;;22.52;88.16
48846;BME280;34665;51.886;5.436;2022-12-29T12:34:35;100186.94;;;20.81;91.09
48846;BME280;34665;51.886;5.436;2022-12-29T12:51:23;100176.50;;;20.99;96.62
48846;BME280;34665;51.886;5.436;2022-12-29T12:54:17;100198.47;;;21.08;96.82
48846;BME280;34665;51.886;5.436;2022-12-29T12:59:32;100195.56;;;20.94;98.08
48846;BME280;34665;51.886;5.436;2022-12-29T13:02:34;100215.94;;;20.96;98.45
48846;BME280;34665;51.886;5.436;2022-12-29T13:05:14;100199.88;;;20.29;100.00
48846;BME280;34665;51.886;5.436;2022-12-29T13:16:34;100218.53;;;20.56;100.00
48846;BME280;34665;51.886;5.436;2022-12-29T13:19:19;100225.19;;;19.36;100.00
48846;BME280;34665;51.886;5.436;2022-12-29T13:22:13;100239.59;;;20.09;100.00
48846;BME280;34665;51.886;5.436;2022-12-29T13:27:36;100207.81;;;20.15;100.00
48846;BME280;34665;51.886;5.436;2022-12-29T13:30:14;100199.16;;;20.73;97.10
48846;BME280;34665;51.886;5.436;2022-12-29T13:33:06;100201.88;;;19.97;98.32
48846;BME280;34665;51.886;5.436;2022-12-29T13:40:50;100215.34;;;20.33;98.20
48846;BME280;34665;51.886;5.436;2022-12-29T13:43:19;100230.34;;;19.58;97.40
48846;BME280;34665;51.886;5.436;2022-12-29T13:45:55;100241.19;;;19.53;98.11
48846;BME280;34665;51.886;5.436;2022-12-29T13:48:34;100215.16;;;19.78;100.00
48846;BME280;34665;51.886;5.436;2022-12-29T13:51:02;100218.69;;;19.42;98.97
48846;BME280;34665;51.886;5.436;2022-12-29T13:57:21;100234.91;;;20.35;94.33
48846;BME280;34665;51.886;5.436;2022-12-29T13:59:54;100226.47;;;20.42;95.29
48846;BME280;34665;51.886;5.436;2022-12-29T14:08:02;100240.25;;;20.61;89.98
48846;BME280;34665;51.886;5.436;2022-12-29T14:13:16;100260.00;;;18.86;100.00
48846;BME280;34665;51.886;5.436;2022-12-29T14:15:45;100241.25;;;18.74;100.00
48846;BME280;34665;51.886;5.436;2022-12-29T14:18:23;100245.56;;;19.96;100.00
48846;BME280;34665;51.886;5.436;2022-12-29T14:23:46;100250.97;;;20.16;100.00
48846;BME280;34665;51.886;5.436;2022-12-29T14:26:17;100244.91;;;20.56;100.00
48846;BME280;34665;51.886;5.436;2022-12-29T14:28:46;100256.06;;;20.39;100.00
48846;BME280;34665;51.886;5.436;2022-12-29T14:36:35;100245.47;;;12.12;100.00
48846;BME280;34665;51.886;5.436;2022-12-29T14:39:01;100231.50;;;11.53;100.00
48846;BME280;34665;51.886;5.436;2022-12-29T14:41:33;100265.13;;;11.03;100.00
48846;BME280;34665;51.886;5.436;2022-12-29T14:44:19;100256.09;;;11.36;100.00
48846;BME280;34665;51.886;5.436;2022-12-29T14:49:24;100252.81;;;11.34;100.00
48846;BME280;34665;51.886;5.436;2022-12-29T14:51:52;100262.03;;;11.45;100.00
48846;BME280;34665;51.886;5.436;2022-12-29T14:56:59;100254.69;;;11.66;100.00
48846;BME280;34665;51.886;5.436;2022-12-29T14:59:26;100257.19;;;11.60;100.00